WXM80 ListenWXM80 Stop

You find our weather info also at:

UK Metoffice

WeatherCloud

Weather Underground

Northeastern Weather Network

AWEKAS

Citizen Weather Observer Program (CWOP)

HAMweather, WeatherForYou, PWS Weather


Weather Underground History page Text

Daily Summary for February 4, 2018 Units:  Both    English   Metric
« Previous Day
Next Day »
Daily Weekly Monthly Yearly Custom
  High: Low: Average:
Temperature: 48.5 °F /  9.2 °C 30.1 °F /  -1.1 °C 40.1 °F /  4.5 °C
Dew Point: 47.7 °F /  8.7 °C 18.3 °F /  -7.6 °C 32.9 °F /  0.5 °C
Humidity: 97 % 59 % 76 %
Wind Speed: 7.5 mph /  12.1 km/h - 2.6 mph /  4.2 km/h
Wind Gust: 13.0 mph /  20.9 km/h - -
Wind:- - SSW
Pressure: 30.11 in /  1019.5 hPa 29.33 in /  993.1 hPa -
Precipitation: 0.82 in /  20.83 mm    
Historical Graphs
 
 
Tabular Data for February 4, 2018
Time Temperature Dew Point Pressure Wind Wind Speed Wind Gust Humidity Rainfall Rate (Hourly)
00:03 30.1 °F /  -1.1 °C 18.3 °F /  -7.6 °C 30.10 in /  1019.2 hPa SSW 5.2 mph /  8.4 km/h 11.5 mph /  18.5 km/h 61 % 0.00 in /  0 mm
00:08 30.2 °F /  -1 °C 18.7 °F /  -7.4 °C 30.11 in /  1019.5 hPa SW 3.2 mph /  5.1 km/h 5.0 mph /  8 km/h 62 % 0.00 in /  0 mm
00:13 30.3 °F /  -0.9 °C 19.2 °F /  -7.1 °C 30.11 in /  1019.5 hPa SSW 2.8 mph /  4.5 km/h 5.8 mph /  9.3 km/h 63 % 0.00 in /  0 mm
00:18 30.4 °F /  -0.9 °C 19.3 °F /  -7.1 °C 30.10 in /  1019.2 hPa SSW 5.7 mph /  9.2 km/h 11.5 mph /  18.5 km/h 63 % 0.00 in /  0 mm
00:23 30.5 °F /  -0.8 °C 19.8 °F /  -6.8 °C 30.10 in /  1019.2 hPa SSW 6.2 mph /  10 km/h 9.2 mph /  14.8 km/h 64 % 0.00 in /  0 mm
00:28 30.6 °F /  -0.8 °C 19.9 °F /  -6.7 °C 30.10 in /  1019.2 hPa SW 1.5 mph /  2.4 km/h 8.0 mph /  12.9 km/h 64 % 0.00 in /  0 mm
00:33 30.7 °F /  -0.7 °C 20.0 °F /  -6.7 °C 30.10 in /  1019.2 hPa SSW 5.5 mph /  8.9 km/h 5.8 mph /  9.3 km/h 64 % 0.00 in /  0 mm
00:38 30.8 °F /  -0.7 °C 19.7 °F /  -6.8 °C 30.10 in /  1019.2 hPa SSW 3.2 mph /  5.1 km/h 5.0 mph /  8 km/h 63 % 0.00 in /  0 mm
00:44 30.9 °F /  -0.6 °C 19.8 °F /  -6.8 °C 30.10 in /  1019.2 hPa SSW 3.5 mph /  5.6 km/h 7.0 mph /  11.3 km/h 63 % 0.00 in /  0 mm
00:49 30.9 °F /  -0.6 °C 19.8 °F /  -6.8 °C 30.10 in /  1019.2 hPa SSW 3.5 mph /  5.6 km/h 3.5 mph /  5.6 km/h 63 % 0.00 in /  0 mm
00:54 31.0 °F /  -0.6 °C 19.9 °F /  -6.7 °C 30.10 in /  1019.2 hPa SW 1.8 mph /  2.9 km/h 6.9 mph /  11.1 km/h 63 % 0.00 in /  0 mm
00:59 31.0 °F /  -0.6 °C 19.9 °F /  -6.7 °C 30.10 in /  1019.2 hPa South 3.4 mph /  5.5 km/h 8.1 mph /  13 km/h 63 % 0.00 in /  0 mm
01:04 31.1 °F /  -0.5 °C 19.6 °F /  -6.9 °C 30.10 in /  1019.2 hPa SW 4.1 mph /  6.6 km/h 8.1 mph /  13 km/h 62 % 0.00 in /  0 mm
01:09 31.2 °F /  -0.4 °C 19.3 °F /  -7.1 °C 30.10 in /  1019.2 hPa SSW 2.8 mph /  4.5 km/h 7.0 mph /  11.3 km/h 61 % 0.00 in /  0 mm
01:14 31.3 °F /  -0.4 °C 19.4 °F /  -7 °C 30.10 in /  1019.2 hPa SSW 2.1 mph /  3.4 km/h 5.8 mph /  9.3 km/h 61 % 0.00 in /  0 mm
01:19 31.3 °F /  -0.4 °C 19.0 °F /  -7.2 °C 30.10 in /  1019.2 hPa SSW 5.2 mph /  8.4 km/h 7.0 mph /  11.3 km/h 60 % 0.00 in /  0 mm
01:24 31.3 °F /  -0.4 °C 19.0 °F /  -7.2 °C 30.10 in /  1019.2 hPa SW 3.5 mph /  5.6 km/h 8.0 mph /  12.9 km/h 60 % 0.00 in /  0 mm
01:29 31.4 °F /  -0.3 °C 19.1 °F /  -7.2 °C 30.09 in /  1018.8 hPa SSW 2.5 mph /  4 km/h 4.6 mph /  7.4 km/h 60 % 0.00 in /  0 mm
01:34 31.4 °F /  -0.3 °C 19.1 °F /  -7.2 °C 30.09 in /  1018.8 hPa SSW 4.5 mph /  7.2 km/h 5.8 mph /  9.3 km/h 60 % 0.00 in /  0 mm
01:39 31.3 °F /  -0.4 °C 19.0 °F /  -7.2 °C 30.10 in /  1019.2 hPa SSW 5.7 mph /  9.2 km/h 10.4 mph /  16.7 km/h 60 % 0.00 in /  0 mm
01:44 31.4 °F /  -0.3 °C 19.1 °F /  -7.2 °C 30.09 in /  1018.8 hPa SSW 4.3 mph /  6.9 km/h 8.1 mph /  13 km/h 60 % 0.00 in /  0 mm
01:49 31.4 °F /  -0.3 °C 19.1 °F /  -7.2 °C 30.09 in /  1018.8 hPa SW 4.4 mph /  7.1 km/h 6.0 mph /  9.7 km/h 60 % 0.00 in /  0 mm
01:54 31.3 °F /  -0.4 °C 19.0 °F /  -7.2 °C 30.09 in /  1018.8 hPa SSW 1.1 mph /  1.8 km/h 5.8 mph /  9.3 km/h 60 % 0.00 in /  0 mm
01:59 31.4 °F /  -0.3 °C 19.1 °F /  -7.2 °C 30.09 in /  1018.8 hPa SSW 1.8 mph /  2.9 km/h 4.0 mph /  6.4 km/h 60 % 0.00 in /  0 mm
02:04 31.4 °F /  -0.3 °C 19.5 °F /  -6.9 °C 30.09 in /  1018.8 hPa SW 4.1 mph /  6.6 km/h 5.8 mph /  9.3 km/h 61 % 0.00 in /  0 mm
02:10 31.4 °F /  -0.3 °C 19.5 °F /  -6.9 °C 30.09 in /  1018.8 hPa South 0.8 mph /  1.3 km/h 3.5 mph /  5.6 km/h 61 % 0.00 in /  0 mm
02:15 31.4 °F /  -0.3 °C 19.5 °F /  -6.9 °C 30.09 in /  1018.8 hPa SSW 2.5 mph /  4 km/h 5.8 mph /  9.3 km/h 61 % 0.00 in /  0 mm
02:20 31.4 °F /  -0.3 °C 19.5 °F /  -6.9 °C 30.08 in /  1018.5 hPa South 3.4 mph /  5.5 km/h 5.8 mph /  9.3 km/h 61 % 0.00 in /  0 mm
02:25 31.5 °F /  -0.3 °C 19.6 °F /  -6.9 °C 30.08 in /  1018.5 hPa SSW 3.2 mph /  5.1 km/h 8.1 mph /  13 km/h 61 % 0.00 in /  0 mm
02:30 31.5 °F /  -0.3 °C 19.6 °F /  -6.9 °C 30.08 in /  1018.5 hPa South 2.5 mph /  4 km/h 4.6 mph /  7.4 km/h 61 % 0.00 in /  0 mm
02:35 31.5 °F /  -0.3 °C 19.2 °F /  -7.1 °C 30.08 in /  1018.5 hPa SSW 3.6 mph /  5.8 km/h 5.8 mph /  9.3 km/h 60 % 0.00 in /  0 mm
02:40 31.5 °F /  -0.3 °C 19.2 °F /  -7.1 °C 30.08 in /  1018.5 hPa SSW 3.0 mph /  4.8 km/h 5.8 mph /  9.3 km/h 60 % 0.00 in /  0 mm
02:45 31.6 °F /  -0.2 °C 19.3 °F /  -7.1 °C 30.08 in /  1018.5 hPa SW 2.3 mph /  3.7 km/h 4.6 mph /  7.4 km/h 60 % 0.00 in /  0 mm
02:50 31.6 °F /  -0.2 °C 19.3 °F /  -7.1 °C 30.08 in /  1018.5 hPa SSW 2.6 mph /  4.2 km/h 4.0 mph /  6.4 km/h 60 % 0.00 in /  0 mm
02:55 31.6 °F /  -0.2 °C 19.3 °F /  -7.1 °C 30.08 in /  1018.5 hPa SSW 1.8 mph /  2.9 km/h 3.5 mph /  5.6 km/h 60 % 0.00 in /  0 mm
03:00 31.6 °F /  -0.2 °C 19.3 °F /  -7.1 °C 30.08 in /  1018.5 hPa SSW 1.3 mph /  2.1 km/h 3.5 mph /  5.6 km/h 60 % 0.00 in /  0 mm
03:05 31.7 °F /  -0.2 °C 19.8 °F /  -6.8 °C 30.08 in /  1018.5 hPa SSW 3.7 mph /  6 km/h 4.0 mph /  6.4 km/h 61 % 0.00 in /  0 mm
03:10 31.7 °F /  -0.2 °C 19.8 °F /  -6.8 °C 30.08 in /  1018.5 hPa SW 3.4 mph /  5.5 km/h 4.6 mph /  7.4 km/h 61 % 0.00 in /  0 mm
03:15 31.7 °F /  -0.2 °C 19.8 °F /  -6.8 °C 30.07 in /  1018.2 hPa SW 0.8 mph /  1.3 km/h 3.5 mph /  5.6 km/h 61 % 0.00 in /  0 mm
03:20 31.7 °F /  -0.2 °C 19.8 °F /  -6.8 °C 30.07 in /  1018.2 hPa Calm     61 % 0.00 in /  0 mm
03:25 31.7 °F /  -0.2 °C 20.2 °F /  -6.6 °C 30.08 in /  1018.5 hPa SSW 0.8 mph /  1.3 km/h 3.5 mph /  5.6 km/h 62 % 0.00 in /  0 mm
03:31 31.8 °F /  -0.1 °C 20.3 °F /  -6.5 °C 30.09 in /  1018.8 hPa WSW 2.9 mph /  4.7 km/h 5.0 mph /  8 km/h 62 % 0.00 in /  0 mm
03:36 31.9 °F /  -0.1 °C 20.3 °F /  -6.5 °C 30.08 in /  1018.5 hPa SW 1.0 mph /  1.6 km/h 5.0 mph /  8 km/h 62 % 0.00 in /  0 mm
03:41 32.0 °F /  0 °C 20.4 °F /  -6.4 °C 30.07 in /  1018.2 hPa Calm   4.0 mph /  6.4 km/h 62 % 0.00 in /  0 mm
03:46 32.1 °F /  0.1 °C 20.9 °F /  -6.2 °C 30.07 in /  1018.2 hPa SSW 1.0 mph /  1.6 km/h 6.0 mph /  9.7 km/h 63 % 0.00 in /  0 mm
03:51 32.1 °F /  0.1 °C 20.9 °F /  -6.2 °C 30.07 in /  1018.2 hPa SSW 1.0 mph /  1.6 km/h 6.0 mph /  9.7 km/h 63 % 0.00 in /  0 mm
03:56 32.2 °F /  0.1 °C 21.0 °F /  -6.1 °C 30.07 in /  1018.2 hPa SW 2.0 mph /  3.2 km/h 3.5 mph /  5.6 km/h 63 % 0.00 in /  0 mm
04:01 32.3 °F /  0.2 °C 21.1 °F /  -6.1 °C 30.06 in /  1017.8 hPa SSW 2.5 mph /  4 km/h 5.8 mph /  9.3 km/h 63 % 0.00 in /  0 mm
04:06 32.4 °F /  0.2 °C 21.2 °F /  -6 °C 30.06 in /  1017.8 hPa South 2.4 mph /  3.9 km/h 8.1 mph /  13 km/h 63 % 0.00 in /  0 mm
04:11 32.5 °F /  0.3 °C 21.3 °F /  -5.9 °C 30.06 in /  1017.8 hPa SW 3.8 mph /  6.1 km/h 5.8 mph /  9.3 km/h 63 % 0.00 in /  0 mm
04:16 32.6 °F /  0.3 °C 21.0 °F /  -6.1 °C 30.07 in /  1018.2 hPa SW 2.5 mph /  4 km/h 6.9 mph /  11.1 km/h 62 % 0.00 in /  0 mm
04:21 32.7 °F /  0.4 °C 21.1 °F /  -6.1 °C 30.06 in /  1017.8 hPa SW 3.3 mph /  5.3 km/h 5.8 mph /  9.3 km/h 62 % 0.00 in /  0 mm
04:26 32.8 °F /  0.4 °C 21.2 °F /  -6 °C 30.06 in /  1017.8 hPa SSW 2.2 mph /  3.5 km/h 5.8 mph /  9.3 km/h 62 % 0.00 in /  0 mm
04:31 32.8 °F /  0.4 °C 21.2 °F /  -6 °C 30.07 in /  1018.2 hPa WSW 5.4 mph /  8.7 km/h 9.2 mph /  14.8 km/h 62 % 0.00 in /  0 mm
04:36 32.9 °F /  0.5 °C 21.3 °F /  -5.9 °C 30.06 in /  1017.8 hPa South 4.7 mph /  7.6 km/h 6.9 mph /  11.1 km/h 62 % 0.00 in /  0 mm
04:41 33.0 °F /  0.6 °C 21.4 °F /  -5.9 °C 30.06 in /  1017.8 hPa SSW 0.2 mph /  0.3 km/h 3.5 mph /  5.6 km/h 62 % 0.00 in /  0 mm
04:46 33.0 °F /  0.6 °C 21.8 °F /  -5.7 °C 30.07 in /  1018.2 hPa SSW 3.1 mph /  5 km/h 3.5 mph /  5.6 km/h 63 % 0.00 in /  0 mm
04:51 33.0 °F /  0.6 °C 21.8 °F /  -5.7 °C 30.07 in /  1018.2 hPa SSW 1.5 mph /  2.4 km/h 3.5 mph /  5.6 km/h 63 % 0.00 in /  0 mm
04:56 33.1 °F /  0.6 °C 21.9 °F /  -5.6 °C 30.07 in /  1018.2 hPa SSW 2.7 mph /  4.3 km/h 4.0 mph /  6.4 km/h 63 % 0.00 in /  0 mm
05:01 33.2 °F /  0.7 °C 22.3 °F /  -5.4 °C 30.07 in /  1018.2 hPa South 4.1 mph /  6.6 km/h 6.9 mph /  11.1 km/h 64 % 0.00 in /  0 mm
05:06 33.2 °F /  0.7 °C 22.3 °F /  -5.4 °C 30.07 in /  1018.2 hPa South 4.1 mph /  6.6 km/h 5.0 mph /  8 km/h 64 % 0.00 in /  0 mm
05:12 33.2 °F /  0.7 °C 22.3 °F /  -5.4 °C 30.06 in /  1017.8 hPa SW 1.8 mph /  2.9 km/h 4.0 mph /  6.4 km/h 64 % 0.00 in /  0 mm
05:17 33.2 °F /  0.7 °C 22.7 °F /  -5.2 °C 30.06 in /  1017.8 hPa SSW 3.9 mph /  6.3 km/h 6.9 mph /  11.1 km/h 65 % 0.00 in /  0 mm
05:22 33.3 °F /  0.7 °C 22.8 °F /  -5.1 °C 30.06 in /  1017.8 hPa SSW 2.1 mph /  3.4 km/h 4.6 mph /  7.4 km/h 65 % 0.00 in /  0 mm
05:27 33.3 °F /  0.7 °C 23.2 °F /  -4.9 °C 30.06 in /  1017.8 hPa SSE 5.1 mph /  8.2 km/h 8.0 mph /  12.9 km/h 66 % 0.00 in /  0 mm
05:32 33.4 °F /  0.8 °C 23.6 °F /  -4.7 °C 30.05 in /  1017.5 hPa SSW 2.8 mph /  4.5 km/h 8.1 mph /  13 km/h 67 % 0.00 in /  0 mm
05:37 33.5 °F /  0.8 °C 23.7 °F /  -4.6 °C 30.05 in /  1017.5 hPa South 3.7 mph /  6 km/h 5.8 mph /  9.3 km/h 67 % 0.00 in /  0 mm
05:42 33.6 °F /  0.9 °C 24.2 °F /  -4.3 °C 30.04 in /  1017.2 hPa SW 4.8 mph /  7.7 km/h 8.1 mph /  13 km/h 68 % 0.00 in /  0 mm
05:47 33.7 °F /  0.9 °C 24.6 °F /  -4.1 °C 30.03 in /  1016.8 hPa SSW 4.7 mph /  7.6 km/h 11.5 mph /  18.5 km/h 69 % 0.00 in /  0 mm
05:52 33.9 °F /  1.1 °C 24.8 °F /  -4 °C 30.04 in /  1017.2 hPa South 4.6 mph /  7.4 km/h 6.9 mph /  11.1 km/h 69 % 0.00 in /  0 mm
05:57 34.0 °F /  1.1 °C 24.9 °F /  -3.9 °C 30.03 in /  1016.8 hPa South 4.6 mph /  7.4 km/h 9.0 mph /  14.5 km/h 69 % 0.00 in /  0 mm
06:02 34.1 °F /  1.2 °C 25.0 °F /  -3.9 °C 30.03 in /  1016.8 hPa SSW 2.7 mph /  4.3 km/h 7.0 mph /  11.3 km/h 69 % 0.00 in /  0 mm
06:07 34.2 °F /  1.2 °C 25.1 °F /  -3.8 °C 30.03 in /  1016.8 hPa SSW 3.2 mph /  5.1 km/h 7.0 mph /  11.3 km/h 69 % 0.00 in /  0 mm
06:12 34.3 °F /  1.3 °C 25.2 °F /  -3.8 °C 30.03 in /  1016.8 hPa SSW 1.9 mph /  3.1 km/h 8.1 mph /  13 km/h 69 % 0.00 in /  0 mm
06:17 34.3 °F /  1.3 °C 25.2 °F /  -3.8 °C 30.02 in /  1016.5 hPa SW 1.2 mph /  1.9 km/h 6.9 mph /  11.1 km/h 69 % 0.00 in /  0 mm
06:22 34.4 °F /  1.3 °C 25.3 °F /  -3.7 °C 30.02 in /  1016.5 hPa SW 2.9 mph /  4.7 km/h 3.5 mph /  5.6 km/h 69 % 0.00 in /  0 mm
06:27 34.5 °F /  1.4 °C 25.4 °F /  -3.7 °C 30.02 in /  1016.5 hPa SW 2.4 mph /  3.9 km/h 4.6 mph /  7.4 km/h 69 % 0.00 in /  0 mm
06:32 34.6 °F /  1.4 °C 25.5 °F /  -3.6 °C 30.02 in /  1016.5 hPa South 3.8 mph /  6.1 km/h 6.9 mph /  11.1 km/h 69 % 0.00 in /  0 mm
06:37 34.7 °F /  1.5 °C 25.6 °F /  -3.6 °C 30.02 in /  1016.5 hPa SW 7.0 mph /  11.3 km/h 8.1 mph /  13 km/h 69 % 0.00 in /  0 mm
06:43 34.8 °F /  1.6 °C 25.7 °F /  -3.5 °C 30.02 in /  1016.5 hPa South 4.2 mph /  6.8 km/h 7.0 mph /  11.3 km/h 69 % 0.00 in /  0 mm
06:48 34.8 °F /  1.6 °C 25.7 °F /  -3.5 °C 30.02 in /  1016.5 hPa SSW 1.4 mph /  2.3 km/h 5.8 mph /  9.3 km/h 69 % 0.00 in /  0 mm
06:53 35.0 °F /  1.7 °C 25.9 °F /  -3.4 °C 30.02 in /  1016.5 hPa SSW 3.1 mph /  5 km/h 5.8 mph /  9.3 km/h 69 % 0.00 in /  0 mm
06:58 35.0 °F /  1.7 °C 25.5 °F /  -3.6 °C 30.02 in /  1016.5 hPa SW 1.7 mph /  2.7 km/h 4.6 mph /  7.4 km/h 68 % 0.00 in /  0 mm
07:03 35.1 °F /  1.7 °C 25.6 °F /  -3.6 °C 30.02 in /  1016.5 hPa SSW 3.7 mph /  6 km/h 5.8 mph /  9.3 km/h 68 % 0.00 in /  0 mm
07:08 35.2 °F /  1.8 °C 25.7 °F /  -3.5 °C 30.03 in /  1016.8 hPa WSW 3.6 mph /  5.8 km/h 8.0 mph /  12.9 km/h 68 % 0.00 in /  0 mm
07:13 35.3 °F /  1.8 °C 25.4 °F /  -3.7 °C 30.03 in /  1016.8 hPa SSW 3.5 mph /  5.6 km/h 6.0 mph /  9.7 km/h 67 % 0.00 in /  0 mm
07:18 35.5 °F /  1.9 °C 25.6 °F /  -3.6 °C 30.02 in /  1016.5 hPa SSW 3.1 mph /  5 km/h 3.5 mph /  5.6 km/h 67 % 0.00 in /  0 mm
07:23 35.5 °F /  1.9 °C 25.6 °F /  -3.6 °C 30.02 in /  1016.5 hPa SSW 4.9 mph /  7.9 km/h 6.9 mph /  11.1 km/h 67 % 0.00 in /  0 mm
07:28 35.6 °F /  2 °C 25.4 °F /  -3.7 °C 30.02 in /  1016.5 hPa SSW 2.0 mph /  3.2 km/h 5.8 mph /  9.3 km/h 66 % 0.00 in /  0 mm
07:33 35.7 °F /  2.1 °C 25.4 °F /  -3.7 °C 30.01 in /  1016.1 hPa SSW 3.5 mph /  5.6 km/h 5.8 mph /  9.3 km/h 66 % 0.00 in /  0 mm
07:38 35.7 °F /  2.1 °C 25.8 °F /  -3.4 °C 30.01 in /  1016.1 hPa South 1.6 mph /  2.6 km/h 4.6 mph /  7.4 km/h 67 % 0.00 in /  0 mm
07:43 35.8 °F /  2.1 °C 25.9 °F /  -3.4 °C 30.01 in /  1016.1 hPa South 2.5 mph /  4 km/h 4.6 mph /  7.4 km/h 67 % 0.00 in /  0 mm
07:48 35.9 °F /  2.2 °C 26.0 °F /  -3.3 °C 30.02 in /  1016.5 hPa South 2.8 mph /  4.5 km/h 4.6 mph /  7.4 km/h 67 % 0.00 in /  0 mm
07:53 36.0 °F /  2.2 °C 26.1 °F /  -3.3 °C 30.01 in /  1016.1 hPa South 0.1 mph /  0.2 km/h 1.2 mph /  1.9 km/h 67 % 0.00 in /  0 mm
07:58 36.0 °F /  2.2 °C 26.1 °F /  -3.3 °C 30.02 in /  1016.5 hPa South 0.3 mph /  0.5 km/h 3.5 mph /  5.6 km/h 67 % 0.00 in /  0 mm
08:03 36.1 °F /  2.3 °C 26.6 °F /  -3 °C 30.02 in /  1016.5 hPa SW 1.3 mph /  2.1 km/h 3.5 mph /  5.6 km/h 68 % 0.00 in /  0 mm
08:08 36.2 °F /  2.3 °C 26.6 °F /  -3 °C 30.02 in /  1016.5 hPa SW 1.3 mph /  2.1 km/h 4.6 mph /  7.4 km/h 68 % 0.00 in /  0 mm
08:13 36.3 °F /  2.4 °C 27.1 °F /  -2.7 °C 30.01 in /  1016.1 hPa South 1.6 mph /  2.6 km/h 3.5 mph /  5.6 km/h 69 % 0.00 in /  0 mm
08:18 36.5 °F /  2.5 °C 27.6 °F /  -2.4 °C 30.02 in /  1016.5 hPa South 2.4 mph /  3.9 km/h 3.5 mph /  5.6 km/h 70 % 0.00 in /  0 mm
08:23 36.7 °F /  2.6 °C 27.8 °F /  -2.3 °C 30.01 in /  1016.1 hPa WSW 3.1 mph /  5 km/h 9.2 mph /  14.8 km/h 70 % 0.00 in /  0 mm
08:29 36.9 °F /  2.7 °C 28.4 °F /  -2 °C 30.02 in /  1016.5 hPa SSW 1.1 mph /  1.8 km/h 4.6 mph /  7.4 km/h 71 % 0.00 in /  0 mm
08:34 37.1 °F /  2.8 °C 28.6 °F /  -1.9 °C 30.01 in /  1016.1 hPa South 3.8 mph /  6.1 km/h 5.8 mph /  9.3 km/h 71 % 0.00 in /  0 mm
08:39 37.4 °F /  3 °C 28.9 °F /  -1.7 °C 30.01 in /  1016.1 hPa SSW 2.1 mph /  3.4 km/h 4.6 mph /  7.4 km/h 71 % 0.00 in /  0 mm
08:44 37.7 °F /  3.2 °C 29.1 °F /  -1.6 °C 30.00 in /  1015.8 hPa SSW 0.8 mph /  1.3 km/h 3.5 mph /  5.6 km/h 71 % 0.00 in /  0 mm
08:49 37.9 °F /  3.3 °C 29.7 °F /  -1.3 °C 30.00 in /  1015.8 hPa SSW 2.0 mph /  3.2 km/h 5.0 mph /  8 km/h 72 % 0.00 in /  0 mm
08:54 38.2 °F /  3.4 °C 30.0 °F /  -1.1 °C 30.00 in /  1015.8 hPa South 5.4 mph /  8.7 km/h 11.5 mph /  18.5 km/h 72 % 0.00 in /  0 mm
08:59 38.5 °F /  3.6 °C 30.6 °F /  -0.8 °C 30.00 in /  1015.8 hPa SSW 5.6 mph /  9 km/h 7.0 mph /  11.3 km/h 73 % 0.00 in /  0 mm
09:04 38.9 °F /  3.8 °C 31.0 °F /  -0.6 °C 30.00 in /  1015.8 hPa SSW 2.4 mph /  3.9 km/h 5.8 mph /  9.3 km/h 73 % 0.00 in /  0 mm
09:09 39.2 °F /  4 °C 31.3 °F /  -0.4 °C 30.00 in /  1015.8 hPa SSW 4.5 mph /  7.2 km/h 7.0 mph /  11.3 km/h 73 % 0.00 in /  0 mm
09:14 39.5 °F /  4.2 °C 31.6 °F /  -0.2 °C 30.01 in /  1016.1 hPa SSW 3.3 mph /  5.3 km/h 4.6 mph /  7.4 km/h 73 % 0.00 in /  0 mm
09:19 39.7 °F /  4.3 °C 31.8 °F /  -0.1 °C 30.01 in /  1016.1 hPa SSW 5.2 mph /  8.4 km/h 6.0 mph /  9.7 km/h 73 % 0.00 in /  0 mm
09:24 39.9 °F /  4.4 °C 31.9 °F /  -0.1 °C 30.01 in /  1016.1 hPa SW 7.5 mph /  12.1 km/h 10.4 mph /  16.7 km/h 73 % 0.00 in /  0 mm
09:29 40.1 °F /  4.5 °C 31.8 °F /  -0.1 °C 30.01 in /  1016.1 hPa SSW 3.5 mph /  5.6 km/h 5.8 mph /  9.3 km/h 72 % 0.00 in /  0 mm
09:34 40.2 °F /  4.6 °C 31.9 °F /  -0.1 °C 30.01 in /  1016.1 hPa SSW 5.5 mph /  8.9 km/h 7.0 mph /  11.3 km/h 72 % 0.00 in /  0 mm
09:39 40.4 °F /  4.7 °C 31.7 °F /  -0.2 °C 30.00 in /  1015.8 hPa SSW 4.6 mph /  7.4 km/h 7.0 mph /  11.3 km/h 71 % 0.00 in /  0 mm
09:44 40.6 °F /  4.8 °C 31.9 °F /  -0.1 °C 30.00 in /  1015.8 hPa South 4.9 mph /  7.9 km/h 6.9 mph /  11.1 km/h 71 % 0.00 in /  0 mm
09:49 40.9 °F /  4.9 °C 31.9 °F /  -0.1 °C 30.00 in /  1015.8 hPa SSW 5.8 mph /  9.3 km/h 8.1 mph /  13 km/h 70 % 0.00 in /  0 mm
09:55 41.2 °F /  5.1 °C 32.2 °F /  0.1 °C 29.99 in /  1015.5 hPa South 5.2 mph /  8.4 km/h 6.0 mph /  9.7 km/h 70 % 0.00 in /  0 mm
10:00 41.5 °F /  5.3 °C 32.1 °F /  0.1 °C 29.99 in /  1015.5 hPa South 5.1 mph /  8.2 km/h 9.2 mph /  14.8 km/h 69 % 0.00 in /  0 mm
10:05 41.6 °F /  5.3 °C 31.8 °F /  -0.1 °C 29.99 in /  1015.5 hPa South 2.9 mph /  4.7 km/h 5.8 mph /  9.3 km/h 68 % 0.00 in /  0 mm
10:10 41.8 °F /  5.4 °C 31.6 °F /  -0.2 °C 29.98 in /  1015.1 hPa South 4.0 mph /  6.4 km/h 8.1 mph /  13 km/h 67 % 0.00 in /  0 mm
10:15 42.0 °F /  5.6 °C 31.5 °F /  -0.3 °C 29.99 in /  1015.5 hPa SSW 5.2 mph /  8.4 km/h 8.1 mph /  13 km/h 66 % 0.00 in /  0 mm
10:20 42.3 °F /  5.7 °C 31.0 °F /  -0.6 °C 29.98 in /  1015.1 hPa South 4.6 mph /  7.4 km/h 10.0 mph /  16.1 km/h 64 % 0.00 in /  0 mm
10:25 42.4 °F /  5.8 °C 31.5 °F /  -0.3 °C 29.98 in /  1015.1 hPa South 3.8 mph /  6.1 km/h 6.9 mph /  11.1 km/h 65 % 0.00 in /  0 mm
10:30 42.6 °F /  5.9 °C 30.9 °F /  -0.6 °C 29.97 in /  1014.8 hPa South 2.1 mph /  3.4 km/h 4.6 mph /  7.4 km/h 63 % 0.00 in /  0 mm
10:35 42.7 °F /  5.9 °C 31.0 °F /  -0.6 °C 29.97 in /  1014.8 hPa South 3.9 mph /  6.3 km/h 7.0 mph /  11.3 km/h 63 % 0.00 in /  0 mm
10:40 42.9 °F /  6.1 °C 30.4 °F /  -0.9 °C 29.97 in /  1014.8 hPa SSW 4.6 mph /  7.4 km/h 6.9 mph /  11.1 km/h 61 % 0.00 in /  0 mm
10:45 43.2 °F /  6.2 °C 30.2 °F /  -1 °C 29.97 in /  1014.8 hPa SSW 6.8 mph /  10.9 km/h 11.5 mph /  18.5 km/h 60 % 0.00 in /  0 mm
10:50 43.6 °F /  6.4 °C 30.2 °F /  -1 °C 29.96 in /  1014.4 hPa SSW 5.0 mph /  8 km/h 10.4 mph /  16.7 km/h 59 % 0.00 in /  0 mm
10:55 43.9 °F /  6.6 °C 30.9 °F /  -0.6 °C 29.95 in /  1014.1 hPa South 3.4 mph /  5.5 km/h 5.8 mph /  9.3 km/h 60 % 0.00 in /  0 mm
11:00 44.4 °F /  6.9 °C 31.0 °F /  -0.6 °C 29.95 in /  1014.1 hPa South 4.7 mph /  7.6 km/h 6.9 mph /  11.1 km/h 59 % 0.00 in /  0 mm
11:05 44.9 °F /  7.2 °C 31.8 °F /  -0.1 °C 29.95 in /  1014.1 hPa SSW 3.0 mph /  4.8 km/h 8.1 mph /  13 km/h 60 % 0.00 in /  0 mm
11:10 45.4 °F /  7.4 °C 32.7 °F /  0.4 °C 29.94 in /  1013.8 hPa South 6.3 mph /  10.1 km/h 10.0 mph /  16.1 km/h 61 % 0.00 in /  0 mm
11:15 45.8 °F /  7.7 °C 33.5 °F /  0.8 °C 29.94 in /  1013.8 hPa SSW 5.2 mph /  8.4 km/h 6.9 mph /  11.1 km/h 62 % 0.00 in /  0 mm
11:20 46.1 °F /  7.8 °C 34.2 °F /  1.2 °C 29.93 in /  1013.4 hPa South 3.0 mph /  4.8 km/h 9.0 mph /  14.5 km/h 63 % 0.00 in /  0 mm
11:26 46.1 °F /  7.8 °C 35.0 °F /  1.7 °C 29.92 in /  1013.1 hPa South 7.0 mph /  11.3 km/h 12.0 mph /  19.3 km/h 65 % 0.00 in /  0 mm
11:30 46.1 °F /  7.8 °C 35.4 °F /  1.9 °C 29.92 in /  1013.1 hPa South 5.0 mph /  8 km/h 10.0 mph /  16.1 km/h 66 % 0.00 in /  0 mm
11:35 46.0 °F /  7.8 °C 35.3 °F /  1.8 °C 29.91 in /  1012.8 hPa SSE 5.0 mph /  8 km/h 10.0 mph /  16.1 km/h 66 % 0.00 in /  0 mm
11:40 45.9 °F /  7.7 °C 35.9 °F /  2.2 °C 29.91 in /  1012.8 hPa South 6.0 mph /  9.7 km/h 12.0 mph /  19.3 km/h 68 % 0.00 in /  0 mm
11:45 45.8 °F /  7.7 °C 36.2 °F /  2.3 °C 29.90 in /  1012.4 hPa South 3.0 mph /  4.8 km/h 12.0 mph /  19.3 km/h 69 % 0.00 in /  0 mm
11:50 45.7 °F /  7.6 °C 36.8 °F /  2.7 °C 29.89 in /  1012.1 hPa SSE 5.0 mph /  8 km/h 13.0 mph /  20.9 km/h 71 % 0.00 in /  0 mm
11:55 45.8 °F /  7.7 °C 37.3 °F /  2.9 °C 29.89 in /  1012.1 hPa SSE 7.0 mph /  11.3 km/h 13.0 mph /  20.9 km/h 72 % 0.00 in /  0 mm
12:01 45.9 °F /  7.7 °C 37.7 °F /  3.2 °C 29.89 in /  1012.1 hPa SSW 3.6 mph /  5.8 km/h 6.0 mph /  9.7 km/h 73 % 0.00 in /  0 mm
12:06 46.2 °F /  7.9 °C 38.4 °F /  3.6 °C 29.88 in /  1011.7 hPa South 5.0 mph /  8 km/h 9.0 mph /  14.5 km/h 74 % 0.00 in /  0 mm
12:10 46.4 °F /  8 °C 38.2 °F /  3.4 °C 29.88 in /  1011.7 hPa South 1.0 mph /  1.6 km/h 5.0 mph /  8 km/h 73 % 0.00 in /  0 mm
12:15 46.6 °F /  8.1 °C 38.4 °F /  3.6 °C 29.88 in /  1011.7 hPa South 5.0 mph /  8 km/h 9.0 mph /  14.5 km/h 73 % 0.00 in /  0 mm
12:21 46.7 °F /  8.2 °C 38.9 °F /  3.8 °C 29.87 in /  1011.4 hPa South 3.0 mph /  4.8 km/h 13.0 mph /  20.9 km/h 74 % 0.00 in /  0 mm
12:26 46.6 °F /  8.1 °C 38.8 °F /  3.8 °C 29.86 in /  1011.1 hPa South 3.0 mph /  4.8 km/h 6.0 mph /  9.7 km/h 74 % 0.00 in /  0 mm
12:30 46.6 °F /  8.1 °C 39.1 °F /  3.9 °C 29.86 in /  1011.1 hPa South 5.0 mph /  8 km/h 7.0 mph /  11.3 km/h 75 % 0.00 in /  0 mm
12:35 46.6 °F /  8.1 °C 39.1 °F /  3.9 °C 29.85 in /  1010.7 hPa SSW 3.0 mph /  4.8 km/h 7.0 mph /  11.3 km/h 75 % 0.00 in /  0 mm
12:40 46.7 °F /  8.2 °C 39.5 °F /  4.2 °C 29.85 in /  1010.7 hPa South 3.0 mph /  4.8 km/h 7.0 mph /  11.3 km/h 76 % 0.00 in /  0 mm
12:45 46.7 °F /  8.2 °C 39.5 °F /  4.2 °C 29.85 in /  1010.7 hPa South 3.0 mph /  4.8 km/h 7.0 mph /  11.3 km/h 76 % 0.00 in /  0 mm
12:48 46.7 °F /  8.2 °C 39.5 °F /  4.2 °C 29.85 in /  1010.7 hPa SSW 2.8 mph /  4.5 km/h 5.0 mph /  8 km/h 76 % 0.00 in /  0 mm
12:53 47.0 °F /  8.3 °C 40.2 °F /  4.6 °C 29.84 in /  1010.4 hPa SE 2.3 mph /  3.7 km/h 6.9 mph /  11.1 km/h 77 % 0.00 in /  0 mm
12:58 47.2 °F /  8.4 °C 40.4 °F /  4.7 °C 29.84 in /  1010.4 hPa SSW 1.7 mph /  2.7 km/h 5.0 mph /  8 km/h 77 % 0.00 in /  0 mm
13:03 47.4 °F /  8.6 °C 40.6 °F /  4.8 °C 29.83 in /  1010 hPa SSE 0.3 mph /  0.5 km/h 2.3 mph /  3.7 km/h 77 % 0.00 in /  0 mm
13:08 47.7 °F /  8.7 °C 40.8 °F /  4.9 °C 29.83 in /  1010 hPa SSE 1.8 mph /  2.9 km/h 5.8 mph /  9.3 km/h 77 % 0.00 in /  0 mm
13:13 47.9 °F /  8.8 °C 41.0 °F /  5 °C 29.82 in /  1009.7 hPa South 4.7 mph /  7.6 km/h 6.0 mph /  9.7 km/h 77 % 0.00 in /  0 mm
13:18 48.0 °F /  8.9 °C 41.1 °F /  5.1 °C 29.82 in /  1009.7 hPa SW 2.9 mph /  4.7 km/h 6.9 mph /  11.1 km/h 77 % 0.00 in /  0 mm
13:23 48.1 °F /  8.9 °C 41.2 °F /  5.1 °C 29.82 in /  1009.7 hPa SSW 0.4 mph /  0.6 km/h 3.5 mph /  5.6 km/h 77 % 0.00 in /  0 mm
13:28 47.8 °F /  8.8 °C 38.5 °F /  3.6 °C 29.82 in /  1009.7 hPa NW 4.1 mph /  6.6 km/h 5.0 mph /  8 km/h 70 % 0.00 in /  0 mm
13:33 46.9 °F /  8.3 °C 35.7 °F /  2.1 °C 29.81 in /  1009.4 hPa NNW 1.8 mph /  2.9 km/h 4.6 mph /  7.4 km/h 65 % 0.00 in /  0 mm
13:38 46.0 °F /  7.8 °C 34.5 °F /  1.4 °C 29.81 in /  1009.4 hPa NW 1.9 mph /  3.1 km/h 4.6 mph /  7.4 km/h 64 % 0.00 in /  0 mm
13:43 45.0 °F /  7.2 °C 33.9 °F /  1.1 °C 29.80 in /  1009 hPa NNW 2.7 mph /  4.3 km/h 4.6 mph /  7.4 km/h 65 % 0.00 in /  0 mm
13:48 44.2 °F /  6.8 °C 33.2 °F /  0.7 °C 29.79 in /  1008.7 hPa NW 1.6 mph /  2.6 km/h 3.0 mph /  4.8 km/h 65 % 0.00 in /  0 mm
13:53 43.4 °F /  6.3 °C 33.2 °F /  0.7 °C 29.79 in /  1008.7 hPa NW 1.5 mph /  2.4 km/h 3.0 mph /  4.8 km/h 67 % 0.00 in /  0 mm
13:58 42.8 °F /  6 °C 33.0 °F /  0.6 °C 29.78 in /  1008.4 hPa NW 0.9 mph /  1.4 km/h 2.3 mph /  3.7 km/h 68 % 0.00 in /  0 mm
14:03 42.4 °F /  5.8 °C 32.2 °F /  0.1 °C 29.78 in /  1008.4 hPa NW 0.8 mph /  1.3 km/h 3.0 mph /  4.8 km/h 67 % 0.00 in /  0 mm
14:09 42.2 °F /  5.7 °C 32.0 °F /  0 °C 29.78 in /  1008.4 hPa Calm   3.5 mph /  5.6 km/h 67 % 0.00 in /  0 mm
14:14 42.0 °F /  5.6 °C 32.2 °F /  0.1 °C 29.78 in /  1008.4 hPa NW 0.9 mph /  1.4 km/h 3.5 mph /  5.6 km/h 68 % 0.00 in /  0 mm
14:19 41.7 °F /  5.4 °C 31.9 °F /  -0.1 °C 29.78 in /  1008.4 hPa NW 0.2 mph /  0.3 km/h 5.0 mph /  8 km/h 68 % 0.00 in /  0 mm
14:24 41.5 °F /  5.3 °C 31.7 °F /  -0.2 °C 29.77 in /  1008 hPa NNW 0.2 mph /  0.3 km/h 2.3 mph /  3.7 km/h 68 % 0.00 in /  0 mm
14:29 41.3 °F /  5.2 °C 31.9 °F /  -0.1 °C 29.77 in /  1008 hPa Calm     69 % 0.00 in /  0 mm
14:34 41.2 °F /  5.1 °C 31.8 °F /  -0.1 °C 29.77 in /  1008 hPa Calm   1.2 mph /  1.9 km/h 69 % 0.00 in /  0 mm
14:39 41.1 °F /  5.1 °C 31.3 °F /  -0.4 °C 29.76 in /  1007.7 hPa Calm   1.2 mph /  1.9 km/h 68 % 0.00 in /  0 mm
14:44 41.0 °F /  5 °C 32.0 °F /  0 °C 29.76 in /  1007.7 hPa Calm     70 % 0.00 in /  0 mm
14:49 40.9 °F /  4.9 °C 32.2 °F /  0.1 °C 29.76 in /  1007.7 hPa Calm     71 % 0.00 in /  0 mm
14:54 40.8 °F /  4.9 °C 31.8 °F /  -0.1 °C 29.76 in /  1007.7 hPa Calm     70 % 0.00 in /  0 mm
14:59 40.7 °F /  4.8 °C 32.0 °F /  0 °C 29.75 in /  1007.3 hPa Calm     71 % 0.00 in /  0 mm
15:04 40.6 °F /  4.8 °C 31.9 °F /  -0.1 °C 29.75 in /  1007.3 hPa Calm     71 % 0.00 in /  0 mm
15:09 40.5 °F /  4.7 °C 32.2 °F /  0.1 °C 29.75 in /  1007.3 hPa Calm     72 % 0.00 in /  0 mm
15:14 40.4 °F /  4.7 °C 32.4 °F /  0.2 °C 29.74 in /  1007 hPa Calm     73 % 0.00 in /  0 mm
15:19 40.3 °F /  4.6 °C 32.3 °F /  0.2 °C 29.74 in /  1007 hPa Calm     73 % 0.00 in /  0 mm
15:24 40.2 °F /  4.6 °C 32.6 °F /  0.3 °C 29.74 in /  1007 hPa Calm     74 % 0.00 in /  0 mm
15:30 40.0 °F /  4.4 °C 32.7 °F /  0.4 °C 29.74 in /  1007 hPa Calm     75 % 0.00 in /  0 mm
15:35 39.8 °F /  4.3 °C 32.8 °F /  0.4 °C 29.73 in /  1006.7 hPa NNW 0.1 mph /  0.2 km/h 1.2 mph /  1.9 km/h 76 % 0.00 in /  0 mm
15:40 39.6 °F /  4.2 °C 33.3 °F /  0.7 °C 29.72 in /  1006.3 hPa NNW 1.5 mph /  2.4 km/h 2.3 mph /  3.7 km/h 78 % 0.00 in /  0 mm
15:45 39.4 °F /  4.1 °C 33.7 °F /  0.9 °C 29.73 in /  1006.7 hPa NNW 0.2 mph /  0.3 km/h 2.3 mph /  3.7 km/h 80 % 0.00 in /  0 mm
15:50 39.2 °F /  4 °C 33.9 °F /  1.1 °C 29.71 in /  1006 hPa Calm   1.2 mph /  1.9 km/h 81 % 0.00 in /  0 mm
15:55 39.1 °F /  3.9 °C 34.4 °F /  1.3 °C 29.70 in /  1005.6 hPa NNW 1.7 mph /  2.7 km/h 2.3 mph /  3.7 km/h 83 % 0.00 in /  0 mm
16:00 39.1 °F /  3.9 °C 34.7 °F /  1.5 °C 29.71 in /  1006 hPa NNW 1.0 mph /  1.6 km/h 2.3 mph /  3.7 km/h 84 % 0.00 in /  0 mm
16:05 39.0 °F /  3.9 °C 34.9 °F /  1.6 °C 29.70 in /  1005.6 hPa Calm     85 % 0.00 in /  0 mm
16:10 39.0 °F /  3.9 °C 34.9 °F /  1.6 °C 29.70 in /  1005.6 hPa Calm   1.2 mph /  1.9 km/h 85 % 0.00 in /  0 mm
16:15 39.0 °F /  3.9 °C 35.2 °F /  1.8 °C 29.70 in /  1005.6 hPa Calm   1.2 mph /  1.9 km/h 86 % 0.00 in /  0 mm
16:20 39.0 °F /  3.9 °C 35.2 °F /  1.8 °C 29.70 in /  1005.6 hPa Calm     86 % 0.00 in /  0 mm
16:25 38.9 °F /  3.8 °C 35.4 °F /  1.9 °C 29.70 in /  1005.6 hPa NNW 0.5 mph /  0.8 km/h 2.0 mph /  3.2 km/h 87 % 0.00 in /  0 mm
16:30 38.9 °F /  3.8 °C 35.4 °F /  1.9 °C 29.70 in /  1005.6 hPa Calm     87 % 0.00 in /  0 mm
16:35 38.9 °F /  3.8 °C 35.4 °F /  1.9 °C 29.69 in /  1005.3 hPa Calm   2.3 mph /  3.7 km/h 87 % 0.00 in /  0 mm
16:40 38.9 °F /  3.8 °C 35.6 °F /  2 °C 29.69 in /  1005.3 hPa Calm     88 % 0.00 in /  0 mm
16:45 38.9 °F /  3.8 °C 35.6 °F /  2 °C 29.69 in /  1005.3 hPa Calm     88 % 0.00 in /  0 mm
16:50 38.9 °F /  3.8 °C 35.6 °F /  2 °C 29.68 in /  1005 hPa Calm     88 % 0.00 in /  0 mm
16:55 38.9 °F /  3.8 °C 35.6 °F /  2 °C 29.68 in /  1005 hPa Calm     88 % 0.00 in /  0 mm
17:00 39.0 °F /  3.9 °C 35.7 °F /  2.1 °C 29.67 in /  1004.6 hPa Calm     88 % 0.00 in /  0 mm
17:06 39.0 °F /  3.9 °C 35.7 °F /  2.1 °C 29.67 in /  1004.6 hPa NNW 1.0 mph /  1.6 km/h 3.0 mph /  4.8 km/h 88 % 0.00 in /  0 mm
17:11 39.1 °F /  3.9 °C 36.1 °F /  2.3 °C 29.66 in /  1004.3 hPa NNW 1.0 mph /  1.6 km/h 7.0 mph /  11.3 km/h 89 % 0.00 in /  0 mm
17:16 40.4 °F /  4.7 °C 38.5 °F /  3.6 °C 29.65 in /  1003.9 hPa SSE 3.0 mph /  4.8 km/h 7.0 mph /  11.3 km/h 93 % 0.00 in /  0 mm
17:21 41.5 °F /  5.3 °C 39.9 °F /  4.4 °C 29.65 in /  1003.9 hPa SSE 5.0 mph /  8 km/h 7.0 mph /  11.3 km/h 94 % 0.00 in /  0 mm
17:26 42.3 °F /  5.7 °C 41.0 °F /  5 °C 29.65 in /  1003.9 hPa South 1.0 mph /  1.6 km/h 5.0 mph /  8 km/h 95 % 0.00 in /  0 mm
17:31 43.3 °F /  6.3 °C 42.0 °F /  5.6 °C 29.64 in /  1003.6 hPa SSE 2.8 mph /  4.5 km/h 5.8 mph /  9.3 km/h 95 % 0.00 in /  0 mm
17:36 43.9 °F /  6.6 °C 42.5 °F /  5.8 °C 29.64 in /  1003.6 hPa SSE 2.0 mph /  3.2 km/h 7.0 mph /  11.3 km/h 95 % 0.00 in /  0 mm
17:41 44.2 °F /  6.8 °C 42.9 °F /  6.1 °C 29.63 in /  1003.3 hPa South 3.0 mph /  4.8 km/h 5.0 mph /  8 km/h 95 % 0.00 in /  0 mm
17:46 44.6 °F /  7 °C 43.3 °F /  6.3 °C 29.64 in /  1003.6 hPa South 6.1 mph /  9.8 km/h 6.9 mph /  11.1 km/h 95 % 0.00 in /  0 mm
17:51 44.7 °F /  7.1 °C 43.7 °F /  6.5 °C 29.63 in /  1003.3 hPa South 3.0 mph /  4.8 km/h 8.0 mph /  12.9 km/h 96 % 0.00 in /  0 mm
17:56 45.0 °F /  7.2 °C 43.9 °F /  6.6 °C 29.62 in /  1002.9 hPa South 5.0 mph /  8 km/h 9.0 mph /  14.5 km/h 96 % 0.00 in /  0 mm
18:01 45.1 °F /  7.3 °C 43.8 °F /  6.6 °C 29.62 in /  1002.9 hPa South 5.1 mph /  8.2 km/h 8.0 mph /  12.9 km/h 95 % 0.00 in /  0 mm
18:06 45.1 °F /  7.3 °C 43.8 °F /  6.6 °C 29.61 in /  1002.6 hPa South 2.0 mph /  3.2 km/h 8.0 mph /  12.9 km/h 95 % 0.00 in /  0 mm
18:11 45.3 °F /  7.4 °C 43.9 °F /  6.6 °C 29.61 in /  1002.6 hPa South 2.0 mph /  3.2 km/h 5.0 mph /  8 km/h 95 % 0.00 in /  0 mm
18:16 45.5 °F /  7.5 °C 44.4 °F /  6.9 °C 29.61 in /  1002.6 hPa South 5.0 mph /  8 km/h 9.0 mph /  14.5 km/h 96 % 0.00 in /  0 mm
18:21 45.8 °F /  7.7 °C 44.7 °F /  7.1 °C 29.60 in /  1002.3 hPa South 5.0 mph /  8 km/h 10.0 mph /  16.1 km/h 96 % 0.00 in /  0 mm
18:26 45.9 °F /  7.7 °C 44.8 °F /  7.1 °C 29.60 in /  1002.3 hPa South 2.0 mph /  3.2 km/h 7.0 mph /  11.3 km/h 96 % 0.00 in /  0 mm
18:31 46.1 °F /  7.8 °C 45.0 °F /  7.2 °C 29.60 in /  1002.3 hPa South 5.0 mph /  8 km/h 10.0 mph /  16.1 km/h 96 % 0.00 in /  0 mm
18:36 46.4 °F /  8 °C 45.3 °F /  7.4 °C 29.60 in /  1002.3 hPa South 6.0 mph /  9.7 km/h 12.0 mph /  19.3 km/h 96 % 0.00 in /  0 mm
18:41 46.7 °F /  8.2 °C 45.6 °F /  7.6 °C 29.59 in /  1001.9 hPa South 3.9 mph /  6.3 km/h 6.0 mph /  9.7 km/h 96 % 0.01 in /  0.25 mm
18:46 46.9 °F /  8.3 °C 45.8 °F /  7.7 °C 29.59 in /  1001.9 hPa SSE 3.0 mph /  4.8 km/h 8.0 mph /  12.9 km/h 96 % 0.01 in /  0.25 mm
18:51 47.0 °F /  8.3 °C 45.9 °F /  7.7 °C 29.59 in /  1001.9 hPa SE 4.2 mph /  6.8 km/h 8.1 mph /  13 km/h 96 % 0.04 in /  1.02 mm
18:56 46.9 °F /  8.3 °C 45.8 °F /  7.7 °C 29.59 in /  1001.9 hPa South 2.0 mph /  3.2 km/h 7.0 mph /  11.3 km/h 96 % 0.00 in /  0 mm
19:01 47.0 °F /  8.3 °C 45.9 °F /  7.7 °C 29.58 in /  1001.6 hPa SSE 0.7 mph /  1.1 km/h 5.8 mph /  9.3 km/h 96 % 0.05 in /  1.27 mm
19:06 47.0 °F /  8.3 °C 45.9 °F /  7.7 °C 29.58 in /  1001.6 hPa South 2.8 mph /  4.5 km/h 5.8 mph /  9.3 km/h 96 % 0.06 in /  1.52 mm
19:11 46.9 °F /  8.3 °C 45.8 °F /  7.7 °C 29.58 in /  1001.6 hPa SE 2.0 mph /  3.2 km/h 5.0 mph /  8 km/h 96 % 0.06 in /  1.52 mm
19:16 46.8 °F /  8.2 °C 45.4 °F /  7.4 °C 29.57 in /  1001.2 hPa SE 2.4 mph /  3.9 km/h 4.6 mph /  7.4 km/h 95 % 0.07 in /  1.78 mm
19:21 46.8 °F /  8.2 °C 45.7 °F /  7.6 °C 29.57 in /  1001.2 hPa SE 2.2 mph /  3.5 km/h 3.5 mph /  5.6 km/h 96 % 0.08 in /  2.03 mm
19:26 46.7 °F /  8.2 °C 45.3 °F /  7.4 °C 29.56 in /  1000.9 hPa South 3.0 mph /  4.8 km/h 5.8 mph /  9.3 km/h 95 % 0.08 in /  2.03 mm
19:31 46.6 °F /  8.1 °C 45.2 °F /  7.3 °C 29.56 in /  1000.9 hPa ESE 3.2 mph /  5.1 km/h 6.9 mph /  11.1 km/h 95 % 0.09 in /  2.29 mm
19:36 46.5 °F /  8.1 °C 45.4 °F /  7.4 °C 29.55 in /  1000.6 hPa SSE 0.1 mph /  0.2 km/h 3.5 mph /  5.6 km/h 96 % 0.10 in /  2.54 mm
19:41 46.4 °F /  8 °C 45.0 °F /  7.2 °C 29.55 in /  1000.6 hPa SE 1.5 mph /  2.4 km/h 3.5 mph /  5.6 km/h 95 % 0.10 in /  2.54 mm
19:46 46.4 °F /  8 °C 45.0 °F /  7.2 °C 29.54 in /  1000.2 hPa SE 1.1 mph /  1.8 km/h 3.5 mph /  5.6 km/h 95 % 0.10 in /  2.54 mm
19:51 46.4 °F /  8 °C 45.0 °F /  7.2 °C 29.54 in /  1000.2 hPa SE 2.3 mph /  3.7 km/h 3.5 mph /  5.6 km/h 95 % 0.09 in /  2.29 mm
19:56 46.4 °F /  8 °C 45.0 °F /  7.2 °C 29.55 in /  1000.6 hPa SSE 4.0 mph /  6.4 km/h 4.6 mph /  7.4 km/h 95 % 0.10 in /  2.54 mm
20:01 46.4 °F /  8 °C 45.3 °F /  7.4 °C 29.54 in /  1000.2 hPa SE 4.2 mph /  6.8 km/h 7.0 mph /  11.3 km/h 96 % 0.10 in /  2.54 mm
20:06 46.5 °F /  8.1 °C 45.4 °F /  7.4 °C 29.53 in /  999.9 hPa SE 3.4 mph /  5.5 km/h 6.9 mph /  11.1 km/h 96 % 0.10 in /  2.54 mm
20:11 46.5 °F /  8.1 °C 45.4 °F /  7.4 °C 29.53 in /  999.9 hPa SE 4.2 mph /  6.8 km/h 6.0 mph /  9.7 km/h 96 % 0.11 in /  2.79 mm
20:16 46.7 °F /  8.2 °C 45.6 °F /  7.6 °C 29.52 in /  999.5 hPa SE 4.5 mph /  7.2 km/h 9.0 mph /  14.5 km/h 96 % 0.11 in /  2.79 mm
20:22 46.9 °F /  8.3 °C 45.8 °F /  7.7 °C 29.51 in /  999.2 hPa SSE 5.3 mph /  8.5 km/h 8.1 mph /  13 km/h 96 % 0.11 in /  2.79 mm
20:27 47.1 °F /  8.4 °C 46.0 °F /  7.8 °C 29.51 in /  999.2 hPa SE 2.1 mph /  3.4 km/h 5.8 mph /  9.3 km/h 96 % 0.12 in /  3.05 mm
20:32 47.2 °F /  8.4 °C 46.1 °F /  7.8 °C 29.51 in /  999.2 hPa SSE 4.7 mph /  7.6 km/h 6.9 mph /  11.1 km/h 96 % 0.13 in /  3.3 mm
20:37 47.4 °F /  8.6 °C 46.3 °F /  7.9 °C 29.51 in /  999.2 hPa SE 4.5 mph /  7.2 km/h 10.4 mph /  16.7 km/h 96 % 0.13 in /  3.3 mm
20:42 47.6 °F /  8.7 °C 46.8 °F /  8.2 °C 29.51 in /  999.2 hPa SSW 3.3 mph /  5.3 km/h 5.8 mph /  9.3 km/h 97 % 0.13 in /  3.3 mm
20:47 47.6 °F /  8.7 °C 46.8 °F /  8.2 °C 29.50 in /  998.9 hPa SSW 2.2 mph /  3.5 km/h 7.0 mph /  11.3 km/h 97 % 0.14 in /  3.56 mm
20:52 47.7 °F /  8.7 °C 46.9 °F /  8.3 °C 29.50 in /  998.9 hPa South 3.8 mph /  6.1 km/h 6.9 mph /  11.1 km/h 97 % 0.14 in /  3.56 mm
20:57 47.8 °F /  8.8 °C 47.0 °F /  8.3 °C 29.49 in /  998.5 hPa SSE 0.8 mph /  1.3 km/h 5.0 mph /  8 km/h 97 % 0.14 in /  3.56 mm
21:02 48.0 °F /  8.9 °C 47.2 °F /  8.4 °C 29.49 in /  998.5 hPa South 3.6 mph /  5.8 km/h 6.9 mph /  11.1 km/h 97 % 0.14 in /  3.56 mm
21:07 48.1 °F /  8.9 °C 47.3 °F /  8.5 °C 29.48 in /  998.2 hPa South 2.3 mph /  3.7 km/h 8.1 mph /  13 km/h 97 % 0.14 in /  3.56 mm
21:12 48.2 °F /  9 °C 47.4 °F /  8.6 °C 29.47 in /  997.9 hPa SE 1.4 mph /  2.3 km/h 3.5 mph /  5.6 km/h 97 % 0.15 in /  3.81 mm
21:17 48.3 °F /  9.1 °C 47.5 °F /  8.6 °C 29.47 in /  997.9 hPa South 1.9 mph /  3.1 km/h 3.5 mph /  5.6 km/h 97 % 0.15 in /  3.81 mm
21:22 48.3 °F /  9.1 °C 47.5 °F /  8.6 °C 29.46 in /  997.5 hPa SE 2.4 mph /  3.9 km/h 3.5 mph /  5.6 km/h 97 % 0.15 in /  3.81 mm
21:27 48.3 °F /  9.1 °C 47.5 °F /  8.6 °C 29.46 in /  997.5 hPa South 1.3 mph /  2.1 km/h 2.0 mph /  3.2 km/h 97 % 0.16 in /  4.06 mm
21:32 48.3 °F /  9.1 °C 47.5 °F /  8.6 °C 29.45 in /  997.2 hPa Calm   1.2 mph /  1.9 km/h 97 % 0.16 in /  4.06 mm
21:37 48.3 °F /  9.1 °C 47.5 °F /  8.6 °C 29.44 in /  996.8 hPa South 1.5 mph /  2.4 km/h 2.3 mph /  3.7 km/h 97 % 0.17 in /  4.32 mm
21:42 48.3 °F /  9.1 °C 47.5 °F /  8.6 °C 29.44 in /  996.8 hPa SSE 1.3 mph /  2.1 km/h 3.5 mph /  5.6 km/h 97 % 0.17 in /  4.32 mm
21:47 48.4 °F /  9.1 °C 47.6 °F /  8.7 °C 29.44 in /  996.8 hPa WNW 2.1 mph /  3.4 km/h 4.0 mph /  6.4 km/h 97 % 0.16 in /  4.06 mm
21:53 48.4 °F /  9.1 °C 47.6 °F /  8.7 °C 29.43 in /  996.5 hPa Calm   2.3 mph /  3.7 km/h 97 % 0.17 in /  4.32 mm
21:58 48.5 °F /  9.2 °C 47.7 °F /  8.7 °C 29.42 in /  996.2 hPa SE 1.5 mph /  2.4 km/h 3.5 mph /  5.6 km/h 97 % 0.18 in /  4.57 mm
22:03 48.5 °F /  9.2 °C 47.7 °F /  8.7 °C 29.41 in /  995.8 hPa SE 0.4 mph /  0.6 km/h 1.2 mph /  1.9 km/h 97 % 0.18 in /  4.57 mm
22:08 48.5 °F /  9.2 °C 47.7 °F /  8.7 °C 29.41 in /  995.8 hPa Calm   1.2 mph /  1.9 km/h 97 % 0.20 in /  5.08 mm
22:13 48.4 °F /  9.1 °C 47.6 °F /  8.7 °C 29.40 in /  995.5 hPa Calm   1.2 mph /  1.9 km/h 97 % 0.22 in /  5.59 mm
22:18 48.3 °F /  9.1 °C 47.5 °F /  8.6 °C 29.39 in /  995.1 hPa Calm     97 % 0.24 in /  6.1 mm
22:23 48.2 °F /  9 °C 47.4 °F /  8.6 °C 29.38 in /  994.8 hPa ESE 0.7 mph /  1.1 km/h 2.3 mph /  3.7 km/h 97 % 0.26 in /  6.6 mm
22:28 48.1 °F /  8.9 °C 47.3 °F /  8.5 °C 29.37 in /  994.5 hPa Calm     97 % 0.27 in /  6.86 mm
22:33 47.9 °F /  8.8 °C 46.8 °F /  8.2 °C 29.37 in /  994.5 hPa Calm     96 % 0.27 in /  6.86 mm
22:38 47.6 °F /  8.7 °C 46.5 °F /  8.1 °C 29.37 in /  994.5 hPa NE 0.3 mph /  0.5 km/h 1.2 mph /  1.9 km/h 96 % 0.27 in /  6.86 mm
22:43 47.2 °F /  8.4 °C 46.1 °F /  7.8 °C 29.38 in /  994.8 hPa NE 2.2 mph /  3.5 km/h 3.5 mph /  5.6 km/h 96 % 0.28 in /  7.11 mm
22:48 46.4 °F /  8 °C 45.0 °F /  7.2 °C 29.37 in /  994.5 hPa Calm   2.3 mph /  3.7 km/h 95 % 0.30 in /  7.62 mm
22:53 45.4 °F /  7.4 °C 44.1 °F /  6.7 °C 29.37 in /  994.5 hPa NE 0.3 mph /  0.5 km/h 2.0 mph /  3.2 km/h 95 % 0.29 in /  7.37 mm
22:58 44.7 °F /  7.1 °C 43.1 °F /  6.2 °C 29.36 in /  994.1 hPa Calm     94 % 0.29 in /  7.37 mm
23:03 44.3 °F /  6.8 °C 42.7 °F /  5.9 °C 29.36 in /  994.1 hPa Calm     94 % 0.28 in /  7.11 mm
23:08 43.8 °F /  6.6 °C 42.2 °F /  5.7 °C 29.35 in /  993.8 hPa ENE 1.8 mph /  2.9 km/h 3.5 mph /  5.6 km/h 94 % 0.26 in /  6.6 mm
23:13 43.3 °F /  6.3 °C 41.7 °F /  5.4 °C 29.34 in /  993.5 hPa NNE 0.6 mph /  1 km/h 4.6 mph /  7.4 km/h 94 % 0.24 in /  6.1 mm
23:18 42.9 °F /  6.1 °C 41.3 °F /  5.2 °C 29.34 in /  993.5 hPa Calm   3.5 mph /  5.6 km/h 94 % 0.22 in /  5.59 mm
23:24 42.6 °F /  5.9 °C 41.0 °F /  5 °C 29.34 in /  993.5 hPa ENE 3.2 mph /  5.1 km/h 3.5 mph /  5.6 km/h 94 % 0.18 in /  4.57 mm
23:29 42.1 °F /  5.6 °C 40.5 °F /  4.7 °C 29.34 in /  993.5 hPa NE 1.3 mph /  2.1 km/h 3.5 mph /  5.6 km/h 94 % 0.17 in /  4.32 mm
23:34 41.9 °F /  5.5 °C 40.3 °F /  4.6 °C 29.33 in /  993.1 hPa NE 0.3 mph /  0.5 km/h 2.3 mph /  3.7 km/h 94 % 0.15 in /  3.81 mm
23:39 41.8 °F /  5.4 °C 40.5 °F /  4.7 °C 29.33 in /  993.1 hPa Calm   1.0 mph /  1.6 km/h 95 % 0.13 in /  3.3 mm
23:44 41.7 °F /  5.4 °C 40.4 °F /  4.7 °C 29.34 in /  993.5 hPa Calm   1.2 mph /  1.9 km/h 95 % 0.11 in /  2.79 mm
23:49 41.6 °F /  5.3 °C 40.3 °F /  4.6 °C 29.34 in /  993.5 hPa NW 4.9 mph /  7.9 km/h 8.1 mph /  13 km/h 95 % 0.09 in /  2.29 mm
23:54 41.5 °F /  5.3 °C 40.2 °F /  4.6 °C 29.34 in /  993.5 hPa NW 1.7 mph /  2.7 km/h 3.5 mph /  5.6 km/h 95 % 0.08 in /  2.03 mm
23:59 41.3 °F /  5.2 °C 40.0 °F /  4.4 °C 29.34 in /  993.5 hPa West 1.8 mph /  2.9 km/h 3.5 mph /  5.6 km/h 95 % 0.06 in /  1.52 mm
Crab Meadow Weather
Compliments of Weather Underground - 3 mb

Script developed by  Jim McMurry - jmcmurry@mwt.net Adapted for the template by  Wim van der Kuil - Leuven-Template.eu

Cloud Base: The cloud base is the distance from the sea level to the base of the clouds. It is estimated using the current temperature and humidity to indicate an altitude where the air could be cold enough for clouds to form. There may or may not be clouds at that altitude (or at any altitude)